createdAt,value
2023-05-04T00:00:20.213Z,12.50
2023-05-04T00:02:47.512Z,11.93
2023-05-04T00:05:14.762Z,14.77
2023-05-04T00:07:41.782Z,14.45
2023-05-04T00:10:09.501Z,17.15
2023-05-04T00:12:36.738Z,14.23
2023-05-04T00:15:05.069Z,18.35
2023-05-04T00:17:33.372Z,19.30
2023-05-04T00:20:00.450Z,24.50
2023-05-04T00:22:27.556Z,18.45
2023-05-04T00:24:54.795Z,15.13
2023-05-04T00:27:21.896Z,15.98
2023-05-04T00:29:49.200Z,15.52
2023-05-04T00:32:16.486Z,14.73
2023-05-04T00:34:43.557Z,15.40
2023-05-04T00:37:10.657Z,19.73
2023-05-04T00:39:37.802Z,12.40
2023-05-04T00:42:05.044Z,17.02
2023-05-04T00:44:32.142Z,15.43
2023-05-04T00:46:59.583Z,14.05
2023-05-04T00:49:27.062Z,15.43
2023-05-04T00:51:57.108Z,17.75
2023-05-04T00:54:25.853Z,13.52
2023-05-04T00:56:53.314Z,18.30
2023-05-04T00:59:20.333Z,17.58
2023-05-04T01:02:03.690Z,19.55
2023-05-04T01:08:37.097Z,21.63
2023-05-04T01:11:32.051Z,13.95
2023-05-04T01:14:12.400Z,18.15
2023-05-04T01:16:42.183Z,18.52
2023-05-04T01:19:09.244Z,16.55
2023-05-04T01:21:37.117Z,16.20
2023-05-04T01:24:06.424Z,19.05
2023-05-04T01:26:41.978Z,15.50
2023-05-04T01:33:20.422Z,21.77
2023-05-04T01:35:49.385Z,24.15
2023-05-04T01:38:24.126Z,21.33
2023-05-04T01:40:51.991Z,18.27
2023-05-04T01:43:22.065Z,12.95
2023-05-04T01:46:01.793Z,14.90
2023-05-04T01:48:29.242Z,15.20
2023-05-04T01:50:56.703Z,14.05
2023-05-04T01:53:28.943Z,13.80
2023-05-04T01:55:56.488Z,14.05
2023-05-04T01:58:24.025Z,13.98
2023-05-04T02:00:51.080Z,16.58
2023-05-04T02:03:19.619Z,17.52
2023-05-04T02:05:47.926Z,17.50
2023-05-04T02:08:16.939Z,18.45
2023-05-04T02:10:43.954Z,18.52
2023-05-04T02:13:11.065Z,20.73
2023-05-04T02:15:38.234Z,20.13
2023-05-04T02:18:05.879Z,19.50
2023-05-04T02:21:02.590Z,13.85
2023-05-04T02:23:30.121Z,21.77
2023-05-04T02:26:11.600Z,18.92
2023-05-04T02:28:44.562Z,18.38
2023-05-04T02:31:11.844Z,22.98
2023-05-04T02:33:58.184Z,16.73
2023-05-04T02:36:46.670Z,18.95
2023-05-04T02:39:48.898Z,22.70
2023-05-04T02:42:40.381Z,18.45
2023-05-04T02:45:12.427Z,16.13
2023-05-04T02:47:39.757Z,22.40
2023-05-04T02:50:08.030Z,20.90
2023-05-04T02:52:35.553Z,14.75
2023-05-04T02:55:04.298Z,21.50
2023-05-04T02:57:31.736Z,17.83
2023-05-04T02:59:58.809Z,14.90
2023-05-04T03:02:26.011Z,16.35
2023-05-04T03:05:08.851Z,16.88
2023-05-04T03:07:36.318Z,19.23
2023-05-04T03:10:03.925Z,18.52
2023-05-04T03:12:43.736Z,14.23
2023-05-04T03:17:43.242Z,19.52
2023-05-04T03:20:13.633Z,18.38
2023-05-04T03:22:42.101Z,26.67
2023-05-04T03:25:10.214Z,21.38
2023-05-04T03:27:37.639Z,23.23
2023-05-04T03:30:06.743Z,20.52
2023-05-04T03:32:35.185Z,17.88
2023-05-04T03:35:04.132Z,15.48
2023-05-04T03:37:31.781Z,18.27
2023-05-04T03:39:59.072Z,17.63
2023-05-04T03:42:26.252Z,17.10
2023-05-04T03:44:53.759Z,22.25
2023-05-04T03:47:20.824Z,21.85
2023-05-04T03:50:11.283Z,16.30
2023-05-04T03:52:38.494Z,18.30
2023-05-04T03:55:07.033Z,16.42
2023-05-04T03:57:34.475Z,23.95
2023-05-04T04:00:01.657Z,19.92
2023-05-04T04:02:31.777Z,29.90
2023-05-04T04:04:59.025Z,20.75
2023-05-04T04:07:26.387Z,15.23
2023-05-04T04:09:53.572Z,14.35
2023-05-04T04:12:20.924Z,18.55
2023-05-04T04:14:49.488Z,28.73
2023-05-04T04:17:16.473Z,16.38
2023-05-04T04:19:43.599Z,14.77
2023-05-04T04:22:10.905Z,14.75
2023-05-04T04:24:38.188Z,18.08
2023-05-04T04:27:05.212Z,20.83
2023-05-04T04:29:35.373Z,21.10
2023-05-04T04:32:03.570Z,16.00
2023-05-04T04:34:34.143Z,15.40
2023-05-04T04:37:01.164Z,18.30
2023-05-04T04:39:28.463Z,16.38
2023-05-04T04:41:56.246Z,19.25
2023-05-04T04:44:23.923Z,18.88
2023-05-04T04:46:51.106Z,17.33
2023-05-04T04:49:18.474Z,17.27
2023-05-04T04:51:45.903Z,19.52
2023-05-04T04:54:13.901Z,19.45
2023-05-04T04:56:42.615Z,15.95
2023-05-04T04:59:10.638Z,14.75
2023-05-04T05:01:38.217Z,18.40
2023-05-04T05:04:05.748Z,19.42
2023-05-04T05:06:32.815Z,18.23
2023-05-04T05:08:59.958Z,15.88
2023-05-04T05:11:27.322Z,20.33
2023-05-04T05:13:54.394Z,18.67
2023-05-04T05:16:21.503Z,14.10
2023-05-04T05:18:48.604Z,14.13
2023-05-04T05:21:15.752Z,15.57
2023-05-04T05:23:43.158Z,14.93
2023-05-04T05:26:11.363Z,16.85
2023-05-04T05:28:39.713Z,11.80
2023-05-04T05:31:07.202Z,14.65
2023-05-04T05:33:34.344Z,15.88
2023-05-04T05:36:01.776Z,17.23
2023-05-04T05:38:28.827Z,17.15
2023-05-04T05:40:56.390Z,15.05
2023-05-04T05:43:23.744Z,18.38
2023-05-04T05:45:56.918Z,16.38
2023-05-04T05:48:26.864Z,17.90
2023-05-04T05:50:53.963Z,20.60
2023-05-04T05:53:24.069Z,18.75
2023-05-04T05:55:51.449Z,13.55
2023-05-04T05:58:24.988Z,17.83
2023-05-04T06:00:52.632Z,16.90
2023-05-04T06:03:19.904Z,16.60
2023-05-04T06:05:47.151Z,17.85
2023-05-04T06:08:14.265Z,17.65
2023-05-04T06:10:43.405Z,15.93
2023-05-04T06:13:10.584Z,16.20
2023-05-04T06:15:37.833Z,14.82
2023-05-04T06:18:07.121Z,13.80
2023-05-04T06:20:35.265Z,15.40
2023-05-04T06:23:09.062Z,18.02
2023-05-04T06:25:36.427Z,17.80
2023-05-04T06:28:04.099Z,15.32
2023-05-04T06:30:31.830Z,15.27
2023-05-04T06:32:59.870Z,15.73
2023-05-04T06:35:27.049Z,14.35
2023-05-04T06:37:54.171Z,15.00
2023-05-04T06:40:21.325Z,13.52
2023-05-04T06:42:48.729Z,15.40
2023-05-04T06:45:15.882Z,16.92
2023-05-04T06:47:43.337Z,12.10
2023-05-04T06:50:11.959Z,11.43
2023-05-04T06:52:41.163Z,14.43
2023-05-04T06:55:09.040Z,10.90
2023-05-04T06:57:36.393Z,12.07
2023-05-04T07:00:04.739Z,15.88
2023-05-04T07:02:32.200Z,18.70
2023-05-04T07:04:59.294Z,10.98
2023-05-04T07:07:26.411Z,13.48
2023-05-04T07:09:53.475Z,13.05
2023-05-04T07:12:20.576Z,14.45
2023-05-04T07:14:49.041Z,13.23
2023-05-04T07:17:16.019Z,11.55
2023-05-04T07:19:43.485Z,11.52
2023-05-04T07:22:10.984Z,13.80
2023-05-04T07:24:38.479Z,12.77
2023-05-04T07:27:08.611Z,8.30
2023-05-04T07:29:35.713Z,14.57
2023-05-04T07:32:02.870Z,15.07
2023-05-04T07:34:41.872Z,13.93
2023-05-04T07:37:12.802Z,16.75
2023-05-04T07:39:43.130Z,10.43
2023-05-04T07:42:11.743Z,20.67
2023-05-04T07:44:38.905Z,14.77
2023-05-04T07:47:06.523Z,13.73
2023-05-04T07:49:33.801Z,13.45
2023-05-04T07:52:01.124Z,16.83
2023-05-04T07:54:28.579Z,14.20
2023-05-04T07:56:55.735Z,13.35
2023-05-04T07:59:23.179Z,8.75
2023-05-04T08:01:51.825Z,14.40
2023-05-04T08:04:18.908Z,10.13
2023-05-04T08:06:46.522Z,8.52
2023-05-04T08:09:13.633Z,13.73
2023-05-04T08:11:40.777Z,14.88
2023-05-04T08:14:08.606Z,15.63
2023-05-04T08:16:36.266Z,14.80
2023-05-04T08:19:03.469Z,10.40
2023-05-04T08:21:30.851Z,11.18
2023-05-04T08:23:58.108Z,16.65
2023-05-04T08:26:25.214Z,9.52
2023-05-04T08:28:52.435Z,8.68
2023-05-04T08:31:19.469Z,9.13
2023-05-04T08:33:46.514Z,8.20
2023-05-04T08:36:13.657Z,9.63
2023-05-04T08:38:40.778Z,11.65
2023-05-04T08:41:09.077Z,10.85
2023-05-04T08:43:37.217Z,11.65
2023-05-04T08:46:06.477Z,14.02
2023-05-04T08:48:34.956Z,11.02
2023-05-04T08:51:06.569Z,10.27
2023-05-04T08:53:37.977Z,10.40
2023-05-04T08:56:12.132Z,10.40
2023-05-04T08:58:49.850Z,9.63
2023-05-04T09:01:22.117Z,9.55
2023-05-04T09:03:50.183Z,10.40
2023-05-04T09:06:18.124Z,7.25
2023-05-04T09:08:45.492Z,7.85
2023-05-04T09:11:12.768Z,13.70
2023-05-04T09:13:39.924Z,8.45
2023-05-04T09:16:07.725Z,11.35
2023-05-04T09:18:43.653Z,10.38
2023-05-04T09:21:12.003Z,7.82
2023-05-04T09:23:50.320Z,10.98
2023-05-04T09:26:31.477Z,8.73
2023-05-04T09:29:16.150Z,11.27
2023-05-04T09:31:52.719Z,8.75
2023-05-04T09:34:21.393Z,8.90
2023-05-04T09:37:03.750Z,7.35
2023-05-04T09:39:31.085Z,6.85
2023-05-04T09:41:58.149Z,10.63
2023-05-04T09:44:28.134Z,6.85
2023-05-04T09:46:58.906Z,9.77
2023-05-04T09:49:37.651Z,10.40
2023-05-04T09:52:07.193Z,9.68
2023-05-04T09:54:36.390Z,10.00
2023-05-04T09:57:13.154Z,10.20
2023-05-04T09:59:41.280Z,7.10
2023-05-04T10:02:22.011Z,7.82
2023-05-04T10:04:51.931Z,8.27
2023-05-04T10:07:21.029Z,6.15
2023-05-04T10:09:50.369Z,7.22
2023-05-04T10:12:17.719Z,9.38
2023-05-04T10:14:46.989Z,12.68
2023-05-04T10:17:45.425Z,5.32
2023-05-04T10:20:38.154Z,9.75
2023-05-04T10:27:05.657Z,11.07
2023-05-04T10:29:34.122Z,9.45
2023-05-04T10:32:01.755Z,11.07
2023-05-04T10:34:32.366Z,9.63
2023-05-04T10:37:01.367Z,7.80
2023-05-04T10:39:34.377Z,6.32
2023-05-04T10:42:08.489Z,9.90
2023-05-04T10:44:53.553Z,9.80
2023-05-04T10:47:38.076Z,11.93
2023-05-04T10:50:08.500Z,7.97
2023-05-04T10:52:53.959Z,8.27
2023-05-04T10:55:22.384Z,9.30
2023-05-04T10:57:55.901Z,8.93
2023-05-04T11:00:37.822Z,8.68
2023-05-04T11:03:07.654Z,8.57
2023-05-04T11:05:46.985Z,9.05
2023-05-04T11:08:20.166Z,9.23
2023-05-04T11:11:19.812Z,9.18
2023-05-04T11:13:48.284Z,5.20
2023-05-04T11:16:27.507Z,11.93
2023-05-04T11:19:06.499Z,6.03
2023-05-04T11:21:33.761Z,8.88
2023-05-04T11:24:01.011Z,9.48
2023-05-04T11:26:28.782Z,6.57
2023-05-04T11:28:55.979Z,7.13
2023-05-04T11:31:24.301Z,14.35
2023-05-04T11:33:54.947Z,9.60
2023-05-04T11:36:26.086Z,5.93
2023-05-04T11:38:57.119Z,12.70
2023-05-04T11:41:27.147Z,8.43
2023-05-04T11:43:54.848Z,8.43
2023-05-04T11:46:22.353Z,6.55
2023-05-04T11:48:49.704Z,8.18
2023-05-04T11:51:17.127Z,8.30
2023-05-04T11:53:44.512Z,7.93
2023-05-04T11:56:11.669Z,14.82
2023-05-04T11:58:39.822Z,8.52
2023-05-04T12:01:07.454Z,6.50
2023-05-04T12:03:50.993Z,6.03
2023-05-04T12:06:33.761Z,6.13
2023-05-04T12:09:07.096Z,8.30
2023-05-04T12:11:35.485Z,11.30
2023-05-04T12:14:03.988Z,7.40
2023-05-04T12:16:31.244Z,8.55
2023-05-04T12:19:07.038Z,8.73
2023-05-04T12:21:36.156Z,7.80
2023-05-04T12:24:04.023Z,5.57
2023-05-04T12:26:31.225Z,10.68
2023-05-04T12:28:58.444Z,9.48
2023-05-04T12:31:25.904Z,7.40
2023-05-04T12:33:53.150Z,8.43
2023-05-04T12:36:20.293Z,8.90
2023-05-04T12:38:47.363Z,7.63
2023-05-04T12:41:14.836Z,5.80
2023-05-04T12:43:42.925Z,6.40
2023-05-04T12:46:10.610Z,8.38
2023-05-04T12:48:37.917Z,6.82
2023-05-04T12:51:05.528Z,5.22
2023-05-04T12:53:32.572Z,5.57
2023-05-04T12:56:01.320Z,5.43
2023-05-04T12:58:28.731Z,9.52
2023-05-04T13:00:56.713Z,6.22
2023-05-04T13:03:24.086Z,7.00
2023-05-04T13:05:51.496Z,9.85
2023-05-04T13:08:19.704Z,10.73
2023-05-04T13:10:47.211Z,6.32
2023-05-04T13:13:18.183Z,8.20
2023-05-04T13:15:45.390Z,11.30
2023-05-04T13:18:13.029Z,6.57
2023-05-04T13:20:40.771Z,9.93
2023-05-04T13:23:08.050Z,9.30
2023-05-04T13:25:35.129Z,10.48
2023-05-04T13:28:02.210Z,7.65
2023-05-04T13:30:29.880Z,6.80
2023-05-04T13:32:57.264Z,5.32
2023-05-04T13:35:24.651Z,8.10
2023-05-04T13:37:51.894Z,7.13
2023-05-04T13:40:19.059Z,8.68
2023-05-04T13:42:46.216Z,7.20
2023-05-04T13:45:13.574Z,7.00
2023-05-04T13:47:40.857Z,7.20
2023-05-04T13:50:08.729Z,5.78
2023-05-04T13:52:39.216Z,5.60
2023-05-04T13:55:06.832Z,4.90
2023-05-04T13:57:33.983Z,11.68
2023-05-04T14:02:37.831Z,7.50
2023-05-04T14:05:05.617Z,7.28
2023-05-04T14:07:34.622Z,6.70
2023-05-04T14:10:02.475Z,6.05
2023-05-04T14:12:29.590Z,6.90
2023-05-04T14:14:57.472Z,8.10
2023-05-04T14:17:24.755Z,4.63
2023-05-04T14:19:51.906Z,5.68
2023-05-04T14:22:19.518Z,8.77
2023-05-04T14:24:46.537Z,7.30
2023-05-04T14:27:13.538Z,7.55
2023-05-04T14:29:41.148Z,5.35
2023-05-04T14:32:08.389Z,7.63
2023-05-04T14:34:36.756Z,5.03
2023-05-04T14:37:06.707Z,5.55
2023-05-04T14:39:34.060Z,4.40
2023-05-04T14:42:01.044Z,10.98
2023-05-04T14:44:31.364Z,7.70
2023-05-04T14:46:58.549Z,5.90
2023-05-04T14:49:36.657Z,6.07
2023-05-04T14:52:04.694Z,5.88
2023-05-04T14:54:31.973Z,8.77
2023-05-04T14:56:59.935Z,9.07
2023-05-04T14:59:27.560Z,10.95
2023-05-04T15:01:55.228Z,6.43
2023-05-04T15:04:22.656Z,6.90
2023-05-04T15:06:50.001Z,5.78
2023-05-04T15:09:16.922Z,7.10
2023-05-04T15:11:44.052Z,8.55
2023-05-04T15:14:11.265Z,6.95
2023-05-04T15:16:38.565Z,8.75
2023-05-04T15:19:05.697Z,6.43
2023-05-04T15:21:32.912Z,6.32
2023-05-04T15:24:00.509Z,8.68
2023-05-04T15:26:29.052Z,9.50
2023-05-04T15:28:56.229Z,6.20
2023-05-04T15:31:23.339Z,7.55
2023-05-04T15:33:51.647Z,6.35
2023-05-04T15:36:18.995Z,7.20
2023-05-04T15:38:48.664Z,6.53
2023-05-04T15:41:15.884Z,8.15
2023-05-04T15:43:42.878Z,5.93
2023-05-04T15:46:09.874Z,13.05
2023-05-04T15:48:36.863Z,6.43
2023-05-04T15:51:07.871Z,9.80
2023-05-04T15:53:34.941Z,9.00
2023-05-04T15:56:04.533Z,6.43
2023-05-04T15:58:33.364Z,16.75
2023-05-04T16:01:03.858Z,7.47
2023-05-04T16:03:34.993Z,8.52
2023-05-04T16:06:02.065Z,10.65
2023-05-04T16:08:29.200Z,6.28
2023-05-04T16:10:57.662Z,9.70
2023-05-04T16:13:24.777Z,11.73
2023-05-04T16:15:52.793Z,7.38
2023-05-04T16:18:19.985Z,5.78
2023-05-04T16:20:48.175Z,8.30
2023-05-04T16:23:17.610Z,8.75
2023-05-04T16:25:44.926Z,8.48
2023-05-04T16:28:12.254Z,7.32
2023-05-04T16:30:39.489Z,8.50
2023-05-04T16:33:06.637Z,7.82
2023-05-04T16:35:35.784Z,4.60
2023-05-04T16:38:03.878Z,10.68
2023-05-04T16:40:32.719Z,9.15
2023-05-04T16:43:00.367Z,6.65
2023-05-04T16:45:31.320Z,14.98
2023-05-04T16:47:58.875Z,9.77
2023-05-04T16:50:26.046Z,5.55
2023-05-04T16:52:53.162Z,8.68
2023-05-04T16:55:20.895Z,6.90
2023-05-04T16:57:48.564Z,8.73
2023-05-04T17:00:16.217Z,4.90
2023-05-04T17:02:43.659Z,5.10
2023-05-04T17:05:11.249Z,8.85
2023-05-04T17:07:43.298Z,8.93
2023-05-04T17:12:42.301Z,9.43
2023-05-04T17:15:11.064Z,7.80
2023-05-04T17:17:38.247Z,6.25
2023-05-04T17:20:06.768Z,8.68
2023-05-04T17:22:34.025Z,7.65
2023-05-04T17:25:01.068Z,8.05
2023-05-04T17:27:28.151Z,8.20
2023-05-04T17:29:55.244Z,5.82
2023-05-04T17:32:22.312Z,8.10
2023-05-04T17:34:50.630Z,12.85
2023-05-04T17:37:17.553Z,6.63
2023-05-04T17:39:46.837Z,5.78
2023-05-04T17:42:15.835Z,8.35
2023-05-04T17:44:43.130Z,6.43
2023-05-04T17:47:10.178Z,11.90
2023-05-04T17:49:37.419Z,9.48
2023-05-04T17:52:04.693Z,7.40
2023-05-04T17:54:32.735Z,8.73
2023-05-04T17:56:59.694Z,8.80
2023-05-04T17:59:26.868Z,7.95
2023-05-04T18:01:53.877Z,5.28
2023-05-04T18:04:20.906Z,8.35
2023-05-04T18:06:51.041Z,6.72
2023-05-04T18:09:19.632Z,9.23
2023-05-04T18:11:47.294Z,8.50
2023-05-04T18:14:14.335Z,11.50
2023-05-04T18:16:41.513Z,8.10
2023-05-04T18:19:08.788Z,9.10
2023-05-04T18:21:37.126Z,8.27
2023-05-04T18:24:04.727Z,7.68
2023-05-04T18:26:32.197Z,7.28
2023-05-04T18:29:07.380Z,8.40
2023-05-04T18:31:38.677Z,8.45
2023-05-04T18:34:06.151Z,9.35
2023-05-04T18:36:36.473Z,11.50
2023-05-04T18:39:04.033Z,7.13
2023-05-04T18:41:31.339Z,7.60
2023-05-04T18:43:58.291Z,5.50
2023-05-04T18:46:26.758Z,9.52
2023-05-04T18:48:53.740Z,6.45
2023-05-04T18:51:20.721Z,6.95
2023-05-04T18:53:48.207Z,7.63
2023-05-04T18:56:15.277Z,9.32
2023-05-04T18:59:11.257Z,7.75
2023-05-04T19:01:38.875Z,8.15
2023-05-04T19:04:06.367Z,12.63
2023-05-04T19:06:33.590Z,9.30
2023-05-04T19:09:01.262Z,7.40
2023-05-04T19:11:29.284Z,9.45
2023-05-04T19:13:56.308Z,9.93
2023-05-04T19:16:23.437Z,9.38
2023-05-04T19:18:50.909Z,12.00
2023-05-04T19:21:18.098Z,10.73
2023-05-04T19:23:45.591Z,10.93
2023-05-04T19:26:12.903Z,8.43
2023-05-04T19:28:40.845Z,9.25
2023-05-04T19:31:08.156Z,11.15
2023-05-04T19:33:47.382Z,10.52
2023-05-04T19:36:16.922Z,11.68
2023-05-04T19:38:44.183Z,8.00
2023-05-04T19:41:11.358Z,8.98
2023-05-04T19:43:39.121Z,12.10
2023-05-04T19:46:06.488Z,10.05
2023-05-04T19:48:33.584Z,10.55
2023-05-04T19:51:00.835Z,15.75
2023-05-04T19:53:29.251Z,12.82
2023-05-04T19:55:56.496Z,10.48
2023-05-04T19:58:28.260Z,10.60
2023-05-04T20:00:56.102Z,11.07
2023-05-04T20:03:23.309Z,12.50
2023-05-04T20:05:53.415Z,12.35
2023-05-04T20:08:20.389Z,10.88
2023-05-04T20:10:47.350Z,12.65
2023-05-04T20:13:14.922Z,13.10
2023-05-04T20:15:42.676Z,17.17
2023-05-04T20:18:09.779Z,13.00
2023-05-04T20:20:36.913Z,13.45
2023-05-04T20:23:04.462Z,13.70
2023-05-04T20:25:32.322Z,17.02
2023-05-04T20:27:59.436Z,17.95
2023-05-04T20:30:28.628Z,12.90
2023-05-04T20:32:56.218Z,16.15
2023-05-04T20:35:23.504Z,14.95
2023-05-04T20:37:50.518Z,14.27
2023-05-04T20:40:17.685Z,12.05
2023-05-04T20:42:45.736Z,12.30
2023-05-04T20:45:13.335Z,15.52
2023-05-04T20:47:40.409Z,13.95
2023-05-04T20:50:10.072Z,11.13
2023-05-04T20:52:38.413Z,15.38
2023-05-04T20:55:07.525Z,14.05
2023-05-04T20:57:35.114Z,11.15
2023-05-04T21:00:02.807Z,15.35
2023-05-04T21:02:29.845Z,14.52
2023-05-04T21:04:57.360Z,13.15
2023-05-04T21:07:24.509Z,13.18
2023-05-04T21:09:58.234Z,10.25
2023-05-04T21:12:25.970Z,13.63
2023-05-04T21:14:53.103Z,15.80
2023-05-04T21:17:20.174Z,12.07
2023-05-04T21:19:47.245Z,11.88
2023-05-04T21:22:17.507Z,10.25
2023-05-04T21:24:46.672Z,13.10
2023-05-04T21:27:14.209Z,13.75
2023-05-04T21:29:41.252Z,17.25
2023-05-04T21:32:08.394Z,13.80
2023-05-04T21:34:35.468Z,10.98
2023-05-04T21:37:03.715Z,11.18
2023-05-04T21:39:31.516Z,10.50
2023-05-04T21:41:58.625Z,17.08
2023-05-04T21:44:25.777Z,13.30
2023-05-04T21:46:53.310Z,16.83
2023-05-04T21:49:20.505Z,18.30
2023-05-04T21:51:47.443Z,14.10
2023-05-04T21:54:14.892Z,10.73
2023-05-04T21:56:42.043Z,12.77
2023-05-04T21:59:09.004Z,13.00
2023-05-04T22:01:36.085Z,13.40
2023-05-04T22:04:07.215Z,13.13
2023-05-04T22:06:34.624Z,16.63
2023-05-04T22:09:01.694Z,12.73
2023-05-04T22:11:28.775Z,11.27
2023-05-04T22:13:55.704Z,12.13
2023-05-04T22:16:22.682Z,12.80
2023-05-04T22:18:49.681Z,15.68
2023-05-04T22:21:16.730Z,19.92
2023-05-04T22:23:43.908Z,16.60
2023-05-04T22:26:11.232Z,14.02
2023-05-04T22:28:38.144Z,13.93
2023-05-04T22:31:05.240Z,20.27
2023-05-04T22:33:32.317Z,12.30
2023-05-04T22:35:59.405Z,12.70
2023-05-04T22:38:26.784Z,19.05
2023-05-04T22:40:53.787Z,13.68
2023-05-04T22:43:20.802Z,14.52
2023-05-04T22:45:47.823Z,15.80
2023-05-04T22:48:15.430Z,11.75
2023-05-04T22:50:42.490Z,12.02
2023-05-04T22:53:10.395Z,11.07
2023-05-04T22:55:37.438Z,13.50
2023-05-04T22:58:04.506Z,12.98
2023-05-04T23:00:31.787Z,10.48
2023-05-04T23:02:59.173Z,13.82
2023-05-04T23:05:26.808Z,16.88
2023-05-04T23:07:53.867Z,12.13
2023-05-04T23:10:21.041Z,9.23
2023-05-04T23:12:48.080Z,13.40
2023-05-04T23:15:15.243Z,9.98
2023-05-04T23:17:42.248Z,19.15
2023-05-04T23:20:10.040Z,13.60
2023-05-04T23:22:37.275Z,20.05
2023-05-04T23:25:04.514Z,15.73
2023-05-04T23:27:31.512Z,16.55
2023-05-04T23:29:58.634Z,15.98
2023-05-04T23:32:25.636Z,17.30
2023-05-04T23:34:53.684Z,19.50
2023-05-04T23:37:20.937Z,12.20
2023-05-04T23:39:48.188Z,19.13
2023-05-04T23:42:15.226Z,13.23
2023-05-04T23:44:42.206Z,16.25
2023-05-04T23:47:09.075Z,15.45
2023-05-04T23:49:36.288Z,19.10
2023-05-04T23:52:03.247Z,15.65
2023-05-04T23:54:30.442Z,16.45
2023-05-04T23:56:58.742Z,13.27
2023-05-04T23:59:26.532Z,13.60
